sensor_id;sensor_type;location;lat;lon;timestamp;temperature;humidity
13697;DHT22;6920;50.080;8.226;2022-10-23T00:01:32;12.50;99.90
13697;DHT22;6920;50.080;8.226;2022-10-23T00:04:02;12.50;99.90
13697;DHT22;6920;50.080;8.226;2022-10-23T00:06:31;12.40;99.90
13697;DHT22;6920;50.080;8.226;2022-10-23T00:14:06;12.20;99.90
13697;DHT22;6920;50.080;8.226;2022-10-23T00:39:04;12.20;99.90
13697;DHT22;6920;50.080;8.226;2022-10-23T00:41:35;12.20;99.90
13697;DHT22;6920;50.080;8.226;2022-10-23T00:51:33;12.20;99.90
13697;DHT22;6920;50.080;8.226;2022-10-23T00:56:37;12.10;99.90
13697;DHT22;6920;50.080;8.226;2022-10-23T01:09:09;12.00;99.90
13697;DHT22;6920;50.080;8.226;2022-10-23T01:11:48;11.90;99.90
13697;DHT22;6920;50.080;8.226;2022-10-23T01:14:25;12.00;99.90
13697;DHT22;6920;50.080;8.226;2022-10-23T01:17:01;12.00;99.90
13697;DHT22;6920;50.080;8.226;2022-10-23T01:19:45;11.90;99.90
13697;DHT22;6920;50.080;8.226;2022-10-23T01:22:36;11.90;99.90
13697;DHT22;6920;50.080;8.226;2022-10-23T01:25:20;12.00;99.90
13697;DHT22;6920;50.080;8.226;2022-10-23T01:27:53;12.00;99.90
13697;DHT22;6920;50.080;8.226;2022-10-23T01:32:54;12.10;99.90
13697;DHT22;6920;50.080;8.226;2022-10-23T01:35:26;12.20;99.90
13697;DHT22;6920;50.080;8.226;2022-10-23T01:38:02;12.20;99.90
13697;DHT22;6920;50.080;8.226;2022-10-23T01:40:36;12.00;99.90
13697;DHT22;6920;50.080;8.226;2022-10-23T01:43:11;12.00;99.90
13697;DHT22;6920;50.080;8.226;2022-10-23T01:45:43;12.10;99.90
13697;DHT22;6920;50.080;8.226;2022-10-23T01:48:17;12.10;99.90
13697;DHT22;6920;50.080;8.226;2022-10-23T01:50:46;12.10;99.90
13697;DHT22;6920;50.080;8.226;2022-10-23T01:53:15;12.20;99.90
13697;DHT22;6920;50.080;8.226;2022-10-23T01:55:47;12.20;99.90
13697;DHT22;6920;50.080;8.226;2022-10-23T01:58:19;12.20;99.90
13697;DHT22;6920;50.080;8.226;2022-10-23T02:00:50;12.20;99.90
13697;DHT22;6920;50.080;8.226;2022-10-23T02:03:22;12.10;99.90
13697;DHT22;6920;50.080;8.226;2022-10-23T02:08:18;12.10;99.90
13697;DHT22;6920;50.080;8.226;2022-10-23T02:10:51;12.10;99.90
13697;DHT22;6920;50.080;8.226;2022-10-23T02:13:27;12.10;99.90
13697;DHT22;6920;50.080;8.226;2022-10-23T02:16:02;12.10;99.90
13697;DHT22;6920;50.080;8.226;2022-10-23T02:18:39;12.10;99.90
13697;DHT22;6920;50.080;8.226;2022-10-23T02:21:16;12.10;99.90
13697;DHT22;6920;50.080;8.226;2022-10-23T02:23:51;12.10;99.90
13697;DHT22;6920;50.080;8.226;2022-10-23T02:26:24;12.20;99.90
13697;DHT22;6920;50.080;8.226;2022-10-23T02:28:57;12.20;99.90
13697;DHT22;6920;50.080;8.226;2022-10-23T02:31:25;12.10;99.90
13697;DHT22;6920;50.080;8.226;2022-10-23T02:33:55;12.20;99.90
13697;DHT22;6920;50.080;8.226;2022-10-23T02:36:23;12.20;99.90
13697;DHT22;6920;50.080;8.226;2022-10-23T02:38:52;12.30;99.90
13697;DHT22;6920;50.080;8.226;2022-10-23T02:41:28;12.30;99.90
13697;DHT22;6920;50.080;8.226;2022-10-23T02:44:20;12.30;99.90
13697;DHT22;6920;50.080;8.226;2022-10-23T02:46:52;12.30;99.90
13697;DHT22;6920;50.080;8.226;2022-10-23T02:49:27;12.20;99.90
13697;DHT22;6920;50.080;8.226;2022-10-23T02:52:02;12.30;99.90
13697;DHT22;6920;50.080;8.226;2022-10-23T02:57:32;12.20;99.90
13697;DHT22;6920;50.080;8.226;2022-10-23T03:00:06;12.10;99.90
13697;DHT22;6920;50.080;8.226;2022-10-23T03:02:37;12.10;99.90
13697;DHT22;6920;50.080;8.226;2022-10-23T03:05:09;12.10;99.90
13697;DHT22;6920;50.080;8.226;2022-10-23T03:07:38;12.20;99.90
13697;DHT22;6920;50.080;8.226;2022-10-23T03:10:07;12.10;99.90
13697;DHT22;6920;50.080;8.226;2022-10-23T03:12:37;12.10;99.90
13697;DHT22;6920;50.080;8.226;2022-10-23T03:15:07;12.20;99.90
13697;DHT22;6920;50.080;8.226;2022-10-23T03:20:03;12.10;99.90
13697;DHT22;6920;50.080;8.226;2022-10-23T03:22:31;12.10;99.90
13697;DHT22;6920;50.080;8.226;2022-10-23T03:27:34;12.10;99.90
13697;DHT22;6920;50.080;8.226;2022-10-23T03:30:08;12.20;99.90
13697;DHT22;6920;50.080;8.226;2022-10-23T03:32:36;12.00;99.90
13697;DHT22;6920;50.080;8.226;2022-10-23T03:35:06;12.10;99.90
13697;DHT22;6920;50.080;8.226;2022-10-23T03:37:34;12.10;99.90
13697;DHT22;6920;50.080;8.226;2022-10-23T03:40:06;12.10;99.90
13697;DHT22;6920;50.080;8.226;2022-10-23T03:45:02;12.00;99.90
13697;DHT22;6920;50.080;8.226;2022-10-23T03:47:32;11.90;99.90
13697;DHT22;6920;50.080;8.226;2022-10-23T03:50:06;11.90;99.90
13697;DHT22;6920;50.080;8.226;2022-10-23T03:55:02;11.90;99.90
13697;DHT22;6920;50.080;8.226;2022-10-23T03:57:31;11.90;99.90
13697;DHT22;6920;50.080;8.226;2022-10-23T04:02:28;11.80;99.90
13697;DHT22;6920;50.080;8.226;2022-10-23T04:04:58;11.70;99.90
13697;DHT22;6920;50.080;8.226;2022-10-23T04:09:53;11.70;99.90
13697;DHT22;6920;50.080;8.226;2022-10-23T04:12:24;11.70;99.90
13697;DHT22;6920;50.080;8.226;2022-10-23T04:14:53;11.70;99.90
13697;DHT22;6920;50.080;8.226;2022-10-23T04:17:20;11.70;99.90
13697;DHT22;6920;50.080;8.226;2022-10-23T04:19:47;11.70;99.90
13697;DHT22;6920;50.080;8.226;2022-10-23T04:22:17;11.70;99.90
13697;DHT22;6920;50.080;8.226;2022-10-23T04:24:44;11.70;99.90
13697;DHT22;6920;50.080;8.226;2022-10-23T04:27:13;11.50;99.90
13697;DHT22;6920;50.080;8.226;2022-10-23T04:29:41;11.60;99.90
13697;DHT22;6920;50.080;8.226;2022-10-23T04:32:08;11.60;99.90
13697;DHT22;6920;50.080;8.226;2022-10-23T04:34:36;11.60;99.90
13697;DHT22;6920;50.080;8.226;2022-10-23T04:39:32;11.60;99.90
13697;DHT22;6920;50.080;8.226;2022-10-23T04:42:02;11.60;99.90
13697;DHT22;6920;50.080;8.226;2022-10-23T04:44:31;11.70;99.90
13697;DHT22;6920;50.080;8.226;2022-10-23T04:49:27;11.60;99.90
13697;DHT22;6920;50.080;8.226;2022-10-23T04:51:55;11.60;99.90
13697;DHT22;6920;50.080;8.226;2022-10-23T04:54:34;11.50;99.90
13697;DHT22;6920;50.080;8.226;2022-10-23T04:57:01;11.50;99.90
13697;DHT22;6920;50.080;8.226;2022-10-23T04:59:28;11.50;99.90
13697;DHT22;6920;50.080;8.226;2022-10-23T05:01:56;11.40;99.90
13697;DHT22;6920;50.080;8.226;2022-10-23T05:09:21;11.40;99.90
13697;DHT22;6920;50.080;8.226;2022-10-23T05:11:49;11.40;99.90
13697;DHT22;6920;50.080;8.226;2022-10-23T05:14:18;11.40;99.90
13697;DHT22;6920;50.080;8.226;2022-10-23T05:16:49;11.40;99.90
13697;DHT22;6920;50.080;8.226;2022-10-23T05:19:21;11.30;99.90
13697;DHT22;6920;50.080;8.226;2022-10-23T05:21:51;11.30;99.90
13697;DHT22;6920;50.080;8.226;2022-10-23T05:24:21;11.40;99.90
13697;DHT22;6920;50.080;8.226;2022-10-23T05:26:53;11.50;99.90
13697;DHT22;6920;50.080;8.226;2022-10-23T05:29:21;11.50;99.90
13697;DHT22;6920;50.080;8.226;2022-10-23T05:31:51;11.60;99.90
13697;DHT22;6920;50.080;8.226;2022-10-23T05:34:22;11.60;99.90
13697;DHT22;6920;50.080;8.226;2022-10-23T05:36:50;11.60;99.90
13697;DHT22;6920;50.080;8.226;2022-10-23T05:39:19;11.50;99.90
13697;DHT22;6920;50.080;8.226;2022-10-23T05:41:46;11.40;99.90
13697;DHT22;6920;50.080;8.226;2022-10-23T05:44:15;11.40;99.90
13697;DHT22;6920;50.080;8.226;2022-10-23T05:46:42;11.50;99.90
13697;DHT22;6920;50.080;8.226;2022-10-23T05:51:39;11.50;99.90
13697;DHT22;6920;50.080;8.226;2022-10-23T05:54:10;11.60;99.90
13697;DHT22;6920;50.080;8.226;2022-10-23T05:56:39;11.70;99.90
13697;DHT22;6920;50.080;8.226;2022-10-23T06:01:42;11.50;99.90
13697;DHT22;6920;50.080;8.226;2022-10-23T06:06:37;11.30;99.90
13697;DHT22;6920;50.080;8.226;2022-10-23T06:09:07;11.30;99.90
13697;DHT22;6920;50.080;8.226;2022-10-23T06:11:35;11.30;99.90
13697;DHT22;6920;50.080;8.226;2022-10-23T06:14:03;11.40;99.90
13697;DHT22;6920;50.080;8.226;2022-10-23T06:16:31;11.30;99.90
13697;DHT22;6920;50.080;8.226;2022-10-23T06:19:01;11.30;99.90
13697;DHT22;6920;50.080;8.226;2022-10-23T06:21:30;11.30;99.90
13697;DHT22;6920;50.080;8.226;2022-10-23T06:23:58;11.30;99.90
13697;DHT22;6920;50.080;8.226;2022-10-23T06:26:27;11.30;99.90
13697;DHT22;6920;50.080;8.226;2022-10-23T06:28:55;11.30;99.90
13697;DHT22;6920;50.080;8.226;2022-10-23T06:33:55;11.30;99.90
13697;DHT22;6920;50.080;8.226;2022-10-23T06:36:27;11.10;99.90
13697;DHT22;6920;50.080;8.226;2022-10-23T06:38:56;11.20;99.90
13697;DHT22;6920;50.080;8.226;2022-10-23T06:41:28;10.90;99.90
13697;DHT22;6920;50.080;8.226;2022-10-23T06:46:24;11.30;99.90
13697;DHT22;6920;50.080;8.226;2022-10-23T06:48:59;11.20;99.90
13697;DHT22;6920;50.080;8.226;2022-10-23T06:53:59;11.20;99.90
13697;DHT22;6920;50.080;8.226;2022-10-23T06:58:56;11.30;99.90
13697;DHT22;6920;50.080;8.226;2022-10-23T07:01:25;11.40;99.90
13697;DHT22;6920;50.080;8.226;2022-10-23T07:03:53;11.40;99.90
13697;DHT22;6920;50.080;8.226;2022-10-23T07:06:20;11.40;99.90
13697;DHT22;6920;50.080;8.226;2022-10-23T07:08:47;11.50;99.90
13697;DHT22;6920;50.080;8.226;2022-10-23T07:11:17;11.50;99.90
13697;DHT22;6920;50.080;8.226;2022-10-23T07:16:15;11.50;99.90
13697;DHT22;6920;50.080;8.226;2022-10-23T07:18:44;11.50;99.90
13697;DHT22;6920;50.080;8.226;2022-10-23T07:21:13;11.50;99.90
13697;DHT22;6920;50.080;8.226;2022-10-23T07:23:49;11.60;99.90
13697;DHT22;6920;50.080;8.226;2022-10-23T07:26:18;11.70;99.90
13697;DHT22;6920;50.080;8.226;2022-10-23T07:28:47;11.70;99.90
13697;DHT22;6920;50.080;8.226;2022-10-23T07:31:17;11.80;99.90
13697;DHT22;6920;50.080;8.226;2022-10-23T07:33:45;11.80;99.90
13697;DHT22;6920;50.080;8.226;2022-10-23T07:36:13;12.00;99.90
13697;DHT22;6920;50.080;8.226;2022-10-23T07:38:41;12.00;99.90
13697;DHT22;6920;50.080;8.226;2022-10-23T07:41:12;12.30;99.90
13697;DHT22;6920;50.080;8.226;2022-10-23T07:43:56;12.40;99.90
13697;DHT22;6920;50.080;8.226;2022-10-23T07:56:34;12.60;99.90
13697;DHT22;6920;50.080;8.226;2022-10-23T07:59:10;12.70;99.90
13697;DHT22;6920;50.080;8.226;2022-10-23T08:01:39;12.80;99.90
13697;DHT22;6920;50.080;8.226;2022-10-23T08:04:12;12.90;99.90
13697;DHT22;6920;50.080;8.226;2022-10-23T08:06:42;13.00;99.90
13697;DHT22;6920;50.080;8.226;2022-10-23T08:09:10;13.30;99.90
13697;DHT22;6920;50.080;8.226;2022-10-23T08:11:39;13.20;99.90
13697;DHT22;6920;50.080;8.226;2022-10-23T08:14:11;13.30;99.90
13697;DHT22;6920;50.080;8.226;2022-10-23T08:16:38;13.40;99.90
13697;DHT22;6920;50.080;8.226;2022-10-23T08:19:06;13.50;99.90
13697;DHT22;6920;50.080;8.226;2022-10-23T08:21:34;13.60;99.90
13697;DHT22;6920;50.080;8.226;2022-10-23T08:24:02;13.70;99.90
13697;DHT22;6920;50.080;8.226;2022-10-23T08:26:29;13.80;99.90
13697;DHT22;6920;50.080;8.226;2022-10-23T08:31:29;14.00;99.90
13697;DHT22;6920;50.080;8.226;2022-10-23T08:33:56;14.00;99.90
13697;DHT22;6920;50.080;8.226;2022-10-23T08:36:25;14.00;99.90
13697;DHT22;6920;50.080;8.226;2022-10-23T08:38:54;14.10;99.90
13697;DHT22;6920;50.080;8.226;2022-10-23T08:41:24;14.10;99.90
13697;DHT22;6920;50.080;8.226;2022-10-23T08:43:55;14.30;99.90
13697;DHT22;6920;50.080;8.226;2022-10-23T08:46:29;14.50;99.90
13697;DHT22;6920;50.080;8.226;2022-10-23T08:49:06;14.70;99.90
13697;DHT22;6920;50.080;8.226;2022-10-23T08:51:39;14.80;99.90
13697;DHT22;6920;50.080;8.226;2022-10-23T08:54:14;14.80;99.90
13697;DHT22;6920;50.080;8.226;2022-10-23T08:56:43;14.90;99.90
13697;DHT22;6920;50.080;8.226;2022-10-23T08:59:18;14.90;99.90
13697;DHT22;6920;50.080;8.226;2022-10-23T09:01:57;14.90;99.90
13697;DHT22;6920;50.080;8.226;2022-10-23T09:04:27;14.90;99.90
13697;DHT22;6920;50.080;8.226;2022-10-23T09:07:08;15.00;99.90
13697;DHT22;6920;50.080;8.226;2022-10-23T09:09:53;15.00;99.90
13697;DHT22;6920;50.080;8.226;2022-10-23T09:12:25;15.10;99.90
13697;DHT22;6920;50.080;8.226;2022-10-23T09:18:00;15.10;99.90
13697;DHT22;6920;50.080;8.226;2022-10-23T09:20:32;15.20;99.90
13697;DHT22;6920;50.080;8.226;2022-10-23T09:23:03;15.30;99.90
13697;DHT22;6920;50.080;8.226;2022-10-23T09:25:37;15.40;99.90
13697;DHT22;6920;50.080;8.226;2022-10-23T09:28:05;15.40;99.90
13697;DHT22;6920;50.080;8.226;2022-10-23T09:30:35;15.50;99.90
13697;DHT22;6920;50.080;8.226;2022-10-23T09:33:19;15.60;99.90
13697;DHT22;6920;50.080;8.226;2022-10-23T09:35:57;15.60;99.90
13697;DHT22;6920;50.080;8.226;2022-10-23T09:38:28;15.70;99.90
13697;DHT22;6920;50.080;8.226;2022-10-23T09:41:01;15.60;99.90
13697;DHT22;6920;50.080;8.226;2022-10-23T09:43:29;15.70;99.90
13697;DHT22;6920;50.080;8.226;2022-10-23T09:46:00;15.80;99.90
13697;DHT22;6920;50.080;8.226;2022-10-23T09:48:33;16.10;99.90
13697;DHT22;6920;50.080;8.226;2022-10-23T09:51:13;16.20;99.90
13697;DHT22;6920;50.080;8.226;2022-10-23T09:53:48;16.50;99.90
13697;DHT22;6920;50.080;8.226;2022-10-23T09:56:25;16.90;99.90
13697;DHT22;6920;50.080;8.226;2022-10-23T09:58:54;17.10;99.90
13697;DHT22;6920;50.080;8.226;2022-10-23T10:01:26;17.20;99.90
13697;DHT22;6920;50.080;8.226;2022-10-23T10:03:56;17.00;99.90
13697;DHT22;6920;50.080;8.226;2022-10-23T10:06:29;16.90;99.90
13697;DHT22;6920;50.080;8.226;2022-10-23T10:08:58;16.90;99.90
13697;DHT22;6920;50.080;8.226;2022-10-23T10:11:46;16.70;99.90
13697;DHT22;6920;50.080;8.226;2022-10-23T10:14:38;16.60;99.90
13697;DHT22;6920;50.080;8.226;2022-10-23T10:17:38;16.60;99.90
13697;DHT22;6920;50.080;8.226;2022-10-23T10:23:03;16.70;99.90
13697;DHT22;6920;50.080;8.226;2022-10-23T10:25:42;16.70;99.90
13697;DHT22;6920;50.080;8.226;2022-10-23T10:31:01;16.70;99.90
13697;DHT22;6920;50.080;8.226;2022-10-23T10:33:35;16.80;99.90
13697;DHT22;6920;50.080;8.226;2022-10-23T10:36:13;16.70;99.90
13697;DHT22;6920;50.080;8.226;2022-10-23T10:46:45;16.50;99.90
13697;DHT22;6920;50.080;8.226;2022-10-23T10:52:01;16.50;99.90
13697;DHT22;6920;50.080;8.226;2022-10-23T10:54:40;16.60;99.90
13697;DHT22;6920;50.080;8.226;2022-10-23T10:57:23;16.70;99.90
13697;DHT22;6920;50.080;8.226;2022-10-23T10:59:57;16.80;99.90
13697;DHT22;6920;50.080;8.226;2022-10-23T11:02:32;16.80;99.90
13697;DHT22;6920;50.080;8.226;2022-10-23T11:05:16;16.90;99.90
13697;DHT22;6920;50.080;8.226;2022-10-23T11:07:53;17.00;99.90
13697;DHT22;6920;50.080;8.226;2022-10-23T11:10:22;16.90;99.90
13697;DHT22;6920;50.080;8.226;2022-10-23T11:12:50;16.90;99.90
13697;DHT22;6920;50.080;8.226;2022-10-23T11:15:22;17.00;99.90
13697;DHT22;6920;50.080;8.226;2022-10-23T11:17:53;17.00;99.90
13697;DHT22;6920;50.080;8.226;2022-10-23T11:21:08;16.80;99.90
13697;DHT22;6920;50.080;8.226;2022-10-23T11:24:11;16.90;99.90
13697;DHT22;6920;50.080;8.226;2022-10-23T11:29:47;17.00;99.90
13697;DHT22;6920;50.080;8.226;2022-10-23T11:32:36;17.00;99.90
13697;DHT22;6920;50.080;8.226;2022-10-23T11:35:24;17.00;99.90
13697;DHT22;6920;50.080;8.226;2022-10-23T11:40:43;17.00;99.90
13697;DHT22;6920;50.080;8.226;2022-10-23T11:43:25;16.80;99.90
13697;DHT22;6920;50.080;8.226;2022-10-23T11:48:36;16.70;99.90
13697;DHT22;6920;50.080;8.226;2022-10-23T11:53:51;17.40;99.90
13697;DHT22;6920;50.080;8.226;2022-10-23T11:56:26;17.70;99.90
13697;DHT22;6920;50.080;8.226;2022-10-23T11:58:58;17.80;99.90
13697;DHT22;6920;50.080;8.226;2022-10-23T12:06:36;18.20;99.90
13697;DHT22;6920;50.080;8.226;2022-10-23T12:09:20;18.50;99.90
13697;DHT22;6920;50.080;8.226;2022-10-23T12:17:01;19.50;99.90
13697;DHT22;6920;50.080;8.226;2022-10-23T12:19:45;19.70;99.90
13697;DHT22;6920;50.080;8.226;2022-10-23T12:22:27;19.70;99.90
13697;DHT22;6920;50.080;8.226;2022-10-23T12:25:07;19.80;99.90
13697;DHT22;6920;50.080;8.226;2022-10-23T12:27:43;20.00;99.90
13697;DHT22;6920;50.080;8.226;2022-10-23T12:30:44;19.90;99.90
13697;DHT22;6920;50.080;8.226;2022-10-23T12:33:23;19.70;99.90
13697;DHT22;6920;50.080;8.226;2022-10-23T12:36:24;20.10;99.90
13697;DHT22;6920;50.080;8.226;2022-10-23T12:38:52;19.90;99.90
13697;DHT22;6920;50.080;8.226;2022-10-23T12:41:27;20.20;99.90
13697;DHT22;6920;50.080;8.226;2022-10-23T12:44:00;20.40;99.90
13697;DHT22;6920;50.080;8.226;2022-10-23T12:46:31;20.20;99.90
13697;DHT22;6920;50.080;8.226;2022-10-23T12:49:00;19.90;99.90
13697;DHT22;6920;50.080;8.226;2022-10-23T12:58:55;19.50;99.90
13697;DHT22;6920;50.080;8.226;2022-10-23T13:01:29;19.50;99.90
13697;DHT22;6920;50.080;8.226;2022-10-23T13:04:03;19.40;99.90
13697;DHT22;6920;50.080;8.226;2022-10-23T13:06:34;19.20;99.90
13697;DHT22;6920;50.080;8.226;2022-10-23T13:09:23;19.00;99.90
13697;DHT22;6920;50.080;8.226;2022-10-23T13:17:05;19.30;99.90
13697;DHT22;6920;50.080;8.226;2022-10-23T13:19:35;19.30;99.90
13697;DHT22;6920;50.080;8.226;2022-10-23T13:22:15;19.20;99.90
13697;DHT22;6920;50.080;8.226;2022-10-23T13:27:29;19.30;99.90
13697;DHT22;6920;50.080;8.226;2022-10-23T13:29:58;19.40;99.90
13697;DHT22;6920;50.080;8.226;2022-10-23T13:32:36;19.60;99.90
13697;DHT22;6920;50.080;8.226;2022-10-23T13:37:33;19.10;99.90
13697;DHT22;6920;50.080;8.226;2022-10-23T13:40:04;18.90;99.90
13697;DHT22;6920;50.080;8.226;2022-10-23T13:42:36;19.00;99.90
13697;DHT22;6920;50.080;8.226;2022-10-23T13:45:04;18.80;99.90
13697;DHT22;6920;50.080;8.226;2022-10-23T13:47:35;18.80;99.90
13697;DHT22;6920;50.080;8.226;2022-10-23T13:50:03;19.00;99.90
13697;DHT22;6920;50.080;8.226;2022-10-23T13:52:32;19.00;99.90
13697;DHT22;6920;50.080;8.226;2022-10-23T13:54:59;18.90;99.90
13697;DHT22;6920;50.080;8.226;2022-10-23T13:57:26;18.80;99.90
13697;DHT22;6920;50.080;8.226;2022-10-23T13:59:56;18.70;99.90
13697;DHT22;6920;50.080;8.226;2022-10-23T14:02:23;18.70;99.90
13697;DHT22;6920;50.080;8.226;2022-10-23T14:04:52;18.80;99.90
13697;DHT22;6920;50.080;8.226;2022-10-23T14:07:20;18.70;99.90
13697;DHT22;6920;50.080;8.226;2022-10-23T14:12:21;18.60;99.90
13697;DHT22;6920;50.080;8.226;2022-10-23T14:14:50;18.60;99.90
13697;DHT22;6920;50.080;8.226;2022-10-23T14:17:20;18.60;99.90
13697;DHT22;6920;50.080;8.226;2022-10-23T14:19:47;18.60;99.90
13697;DHT22;6920;50.080;8.226;2022-10-23T14:22:17;18.70;99.90
13697;DHT22;6920;50.080;8.226;2022-10-23T14:24:49;18.60;99.90
13697;DHT22;6920;50.080;8.226;2022-10-23T14:29:46;18.60;99.90
13697;DHT22;6920;50.080;8.226;2022-10-23T14:32:14;18.40;99.90
13697;DHT22;6920;50.080;8.226;2022-10-23T14:34:51;18.40;99.90
13697;DHT22;6920;50.080;8.226;2022-10-23T14:39:47;18.40;99.90
13697;DHT22;6920;50.080;8.226;2022-10-23T14:42:14;18.30;99.90
13697;DHT22;6920;50.080;8.226;2022-10-23T14:44:43;18.40;99.90
13697;DHT22;6920;50.080;8.226;2022-10-23T14:47:18;18.40;99.90
13697;DHT22;6920;50.080;8.226;2022-10-23T14:49:55;18.30;99.90
13697;DHT22;6920;50.080;8.226;2022-10-23T14:54:53;18.30;99.90
13697;DHT22;6920;50.080;8.226;2022-10-23T14:57:22;18.30;99.90
13697;DHT22;6920;50.080;8.226;2022-10-23T14:59:49;18.30;99.90
13697;DHT22;6920;50.080;8.226;2022-10-23T15:02:18;18.30;99.90
13697;DHT22;6920;50.080;8.226;2022-10-23T15:04:45;18.30;99.90
13697;DHT22;6920;50.080;8.226;2022-10-23T15:07:15;18.30;99.90
13697;DHT22;6920;50.080;8.226;2022-10-23T15:09:44;18.30;99.90
13697;DHT22;6920;50.080;8.226;2022-10-23T15:12:12;18.10;99.90
13697;DHT22;6920;50.080;8.226;2022-10-23T15:14:41;18.10;99.90
13697;DHT22;6920;50.080;8.226;2022-10-23T15:17:09;18.20;99.90
13697;DHT22;6920;50.080;8.226;2022-10-23T15:22:07;18.00;99.90
13697;DHT22;6920;50.080;8.226;2022-10-23T15:24:41;18.00;99.90
13697;DHT22;6920;50.080;8.226;2022-10-23T15:29:35;18.00;99.90
13697;DHT22;6920;50.080;8.226;2022-10-23T15:32:04;18.00;99.90
13697;DHT22;6920;50.080;8.226;2022-10-23T15:34:32;17.90;99.90
13697;DHT22;6920;50.080;8.226;2022-10-23T15:36:59;17.90;99.90
13697;DHT22;6920;50.080;8.226;2022-10-23T15:39:31;17.90;99.90
13697;DHT22;6920;50.080;8.226;2022-10-23T15:42:03;17.90;99.90
13697;DHT22;6920;50.080;8.226;2022-10-23T15:49:32;17.90;99.90
13697;DHT22;6920;50.080;8.226;2022-10-23T16:01:54;17.60;99.90
13697;DHT22;6920;50.080;8.226;2022-10-23T16:04:23;17.50;99.90
13697;DHT22;6920;50.080;8.226;2022-10-23T16:09:19;17.40;99.90
13697;DHT22;6920;50.080;8.226;2022-10-23T16:14:17;17.30;99.90
13697;DHT22;6920;50.080;8.226;2022-10-23T16:19:17;17.10;99.90
13697;DHT22;6920;50.080;8.226;2022-10-23T16:21:47;17.00;99.90
13697;DHT22;6920;50.080;8.226;2022-10-23T16:24:15;16.90;99.90
13697;DHT22;6920;50.080;8.226;2022-10-23T16:29:16;16.80;99.90
13697;DHT22;6920;50.080;8.226;2022-10-23T16:31:43;16.80;99.90
13697;DHT22;6920;50.080;8.226;2022-10-23T16:39:11;16.70;99.90
13697;DHT22;6920;50.080;8.226;2022-10-23T16:46:36;16.60;99.90
13697;DHT22;6920;50.080;8.226;2022-10-23T16:51:34;16.50;99.90
13697;DHT22;6920;50.080;8.226;2022-10-23T17:01:28;16.40;99.90
13697;DHT22;6920;50.080;8.226;2022-10-23T17:03:57;16.30;99.90
13697;DHT22;6920;50.080;8.226;2022-10-23T17:13:55;16.20;99.90
13697;DHT22;6920;50.080;8.226;2022-10-23T17:23:50;16.20;99.90
13697;DHT22;6920;50.080;8.226;2022-10-23T17:31:20;16.40;99.90
13697;DHT22;6920;50.080;8.226;2022-10-23T17:38:49;16.10;99.90
13697;DHT22;6920;50.080;8.226;2022-10-23T17:41:19;16.20;99.90
13697;DHT22;6920;50.080;8.226;2022-10-23T17:48:45;16.10;99.90
13697;DHT22;6920;50.080;8.226;2022-10-23T17:51:16;16.00;99.90
13697;DHT22;6920;50.080;8.226;2022-10-23T17:53:46;16.00;99.90
13697;DHT22;6920;50.080;8.226;2022-10-23T17:58:45;15.80;99.90
13697;DHT22;6920;50.080;8.226;2022-10-23T18:09:01;15.80;99.90
13697;DHT22;6920;50.080;8.226;2022-10-23T18:26:31;15.80;99.90
13697;DHT22;6920;50.080;8.226;2022-10-23T18:29:04;15.80;99.90
13697;DHT22;6920;50.080;8.226;2022-10-23T18:43:59;15.70;99.90
13697;DHT22;6920;50.080;8.226;2022-10-23T19:09:03;15.50;99.90
13697;DHT22;6920;50.080;8.226;2022-10-23T19:14:00;15.60;99.90
13697;DHT22;6920;50.080;8.226;2022-10-23T19:26:34;15.40;99.90
13697;DHT22;6920;50.080;8.226;2022-10-23T19:36:28;15.30;99.90
13697;DHT22;6920;50.080;8.226;2022-10-23T19:43:55;15.30;99.90
13697;DHT22;6920;50.080;8.226;2022-10-23T20:13:50;15.10;99.90
13697;DHT22;6920;50.080;8.226;2022-10-23T20:16:19;15.10;99.90
13697;DHT22;6920;50.080;8.226;2022-10-23T20:21:17;15.20;99.90
13697;DHT22;6920;50.080;8.226;2022-10-23T20:28:50;15.20;99.90
13697;DHT22;6920;50.080;8.226;2022-10-23T20:36:35;15.20;99.90
13697;DHT22;6920;50.080;8.226;2022-10-23T20:39:13;15.20;99.90
13697;DHT22;6920;50.080;8.226;2022-10-23T20:56:37;15.10;99.90
13697;DHT22;6920;50.080;8.226;2022-10-23T21:11:34;15.00;99.90
13697;DHT22;6920;50.080;8.226;2022-10-23T21:24:06;15.00;99.90
13697;DHT22;6920;50.080;8.226;2022-10-23T21:41:33;14.80;99.90
13697;DHT22;6920;50.080;8.226;2022-10-23T21:44:03;14.70;99.90
13697;DHT22;6920;50.080;8.226;2022-10-23T22:21:27;14.40;99.90
13697;DHT22;6920;50.080;8.226;2022-10-23T22:26:33;14.20;99.90
13697;DHT22;6920;50.080;8.226;2022-10-23T22:29:04;14.40;99.90
13697;DHT22;6920;50.080;8.226;2022-10-23T22:31:34;14.30;99.90
13697;DHT22;6920;50.080;8.226;2022-10-23T22:44:05;14.10;99.90
13697;DHT22;6920;50.080;8.226;2022-10-23T22:51:37;14.00;99.90
13697;DHT22;6920;50.080;8.226;2022-10-23T22:54:05;14.10;99.90
13697;DHT22;6920;50.080;8.226;2022-10-23T22:59:10;14.10;99.90
13697;DHT22;6920;50.080;8.226;2022-10-23T23:19:22;14.10;99.90
13697;DHT22;6920;50.080;8.226;2022-10-23T23:27:00;14.00;99.90
13697;DHT22;6920;50.080;8.226;2022-10-23T23:29:28;13.90;99.90
13697;DHT22;6920;50.080;8.226;2022-10-23T23:32:00;13.90;99.90
13697;DHT22;6920;50.080;8.226;2022-10-23T23:49:34;13.50;99.90
